Time;durP1;ratioP1;P1;durP2;ratioP2;P2;SDS_P1;SDS_P2;PMS_P1;PMS_P2;Temp;Humidity;BMP_temperature;BMP_pressure;BME280_temperature;BME280_humidity;BME280_pressure;Samples;Min_cycle;Max_cycle;Signal;HPM_P1;HPM_P2
2022/06/15 00:01:48;;;;;;;16.10;10.13;;;14.10;99.90;;;;;;5021056;28;20049;-59
2022/06/15 00:04:14;;;;;;;17.02;10.02;;;14.00;99.90;;;;;;5019476;28;20069;-59
2022/06/15 00:06:41;;;;;;;13.93;10.15;;;14.00;99.90;;;;;;5020524;28;20046;-60
2022/06/15 00:09:08;;;;;;;16.63;10.10;;;14.00;99.90;;;;;;5002350;28;20042;-59
2022/06/15 00:11:38;;;;;;;16.63;10.05;;;14.00;99.90;;;;;;5019577;28;20573;-60
2022/06/15 00:14:12;;;;;;;15.73;9.75;;;13.90;99.90;;;;;;5020704;28;20061;-59
2022/06/15 00:16:37;;;;;;;15.48;10.35;;;13.90;99.90;;;;;;5018922;28;20076;-56
2022/06/15 00:19:04;;;;;;;18.45;10.13;;;13.80;99.90;;;;;;5020729;28;20046;-60
2022/06/15 00:21:30;;;;;;;14.10;9.65;;;13.80;99.90;;;;;;5019152;28;20060;-59
2022/06/15 00:23:57;;;;;;;14.38;9.65;;;13.80;99.90;;;;;;5019904;28;20081;-60
2022/06/15 00:26:23;;;;;;;17.88;9.68;;;13.80;99.90;;;;;;5020143;28;20050;-58
2022/06/15 00:28:53;;;;;;;14.88;9.65;;;13.80;99.90;;;;;;5019091;28;20056;-59
2022/06/15 00:31:20;;;;;;;15.13;10.00;;;13.80;99.90;;;;;;5020603;28;20069;-59
2022/06/15 00:33:46;;;;;;;15.20;10.05;;;13.70;99.90;;;;;;5018610;28;20045;-59
2022/06/15 00:36:14;;;;;;;16.55;10.15;;;13.70;99.90;;;;;;5020342;28;20676;-59
2022/06/15 00:38:43;;;;;;;17.75;9.85;;;13.70;99.90;;;;;;5019046;28;20120;-59
2022/06/15 00:41:11;;;;;;;15.50;9.45;;;13.70;99.90;;;;;;5019680;28;20034;-58
2022/06/15 00:43:50;;;;;;;16.25;10.60;;;13.70;99.90;;;;;;5019996;28;20097;-58
2022/06/15 00:46:16;;;;;;;13.75;10.35;;;13.70;99.90;;;;;;5018293;28;20056;-59
2022/06/15 00:48:43;;;;;;;18.75;10.30;;;13.60;99.90;;;;;;5020513;28;20081;-59
2022/06/15 00:51:09;;;;;;;17.92;10.60;;;13.60;99.90;;;;;;5018105;28;20085;-59
2022/06/15 00:53:35;;;;;;;13.75;9.57;;;13.60;99.90;;;;;;5020126;28;20928;-59
2022/06/15 00:56:02;;;;;;;17.52;10.70;;;13.60;99.90;;;;;;5018812;28;20044;-59
2022/06/15 00:58:29;;;;;;;16.88;11.13;;;13.60;99.90;;;;;;5001491;28;20125;-60
2022/06/15 01:00:56;;;;;;;17.33;10.68;;;13.50;99.90;;;;;;5019860;28;20046;-59
2022/06/15 01:03:22;;;;;;;15.85;10.45;;;13.50;99.90;;;;;;5018214;28;20056;-59
2022/06/15 01:06:03;;;;;;;16.10;10.30;;;13.60;99.90;;;;;;5019990;28;20095;-59
2022/06/15 01:08:40;;;;;;;16.02;10.73;;;13.50;99.90;;;;;;5018485;28;20046;-60
2022/06/15 01:11:15;;;;;;;15.07;10.43;;;13.50;99.90;;;;;;5019064;28;20042;-59
2022/06/15 01:13:52;;;;;;;17.40;10.45;;;13.50;99.90;;;;;;5019376;28;20508;-59
2022/06/15 01:16:23;;;;;;;16.83;11.10;;;13.50;99.90;;;;;;5017743;28;20046;-59
2022/06/15 01:19:25;;;;;;;15.38;10.57;;;13.40;99.90;;;;;;5020126;28;20053;-59
2022/06/15 01:21:59;;;;;;;15.20;10.15;;;13.40;99.90;;;;;;5018596;28;20058;-59
2022/06/15 01:24:28;;;;;;;17.85;9.52;;;13.40;99.90;;;;;;5018618;28;20050;-60
2022/06/15 01:27:09;;;;;;;18.38;10.73;;;13.30;99.90;;;;;;5002282;28;20076;-59
2022/06/15 01:30:02;;;;;;;16.07;10.40;;;13.30;99.90;;;;;;5018025;28;20084;-59
2022/06/15 01:32:33;;;;;;;17.23;10.90;;;13.30;99.90;;;;;;5019311;28;20076;-59
2022/06/15 01:35:27;;;;;;;14.32;9.43;;;13.30;99.90;;;;;;5019206;28;20049;-59
2022/06/15 01:38:00;;;;;;;15.50;9.57;;;13.20;99.90;;;;;;5012046;28;20050;-60
2022/06/15 01:40:41;;;;;;;13.75;10.68;;;13.20;99.90;;;;;;5019566;28;20045;-59
2022/06/15 01:43:12;;;;;;;16.02;9.73;;;13.20;99.90;;;;;;5018478;28;20872;-59
2022/06/15 01:45:39;;;;;;;13.57;9.95;;;13.20;99.90;;;;;;5000868;28;20049;-60
2022/06/15 01:48:08;;;;;;;17.50;10.70;;;13.20;99.90;;;;;;5019430;28;20096;-59
2022/06/15 01:50:47;;;;;;;14.43;9.45;;;13.10;99.90;;;;;;5017614;28;20081;-59
2022/06/15 01:53:31;;;;;;;13.85;9.63;;;13.00;99.90;;;;;;5001884;28;20502;-60
2022/06/15 01:56:11;;;;;;;15.25;10.35;;;12.90;99.90;;;;;;5018359;28;20046;-60
2022/06/15 01:58:40;;;;;;;15.82;9.77;;;12.90;99.90;;;;;;5018419;28;20098;-59
2022/06/15 02:01:18;;;;;;;13.88;9.77;;;12.70;99.90;;;;;;5019355;28;20098;-60
2022/06/15 02:03:59;;;;;;;14.05;10.25;;;12.80;99.90;;;;;;5017505;28;20084;-59
2022/06/15 02:06:42;;;;;;;13.35;9.75;;;12.70;99.90;;;;;;5001700;28;20113;-60
2022/06/15 02:09:25;;;;;;;16.55;9.95;;;12.70;99.90;;;;;;5018986;28;20046;-60
2022/06/15 02:11:51;;;;;;;15.65;11.00;;;12.60;99.90;;;;;;5017631;28;20132;-59
2022/06/15 02:14:24;;;;;;;15.02;10.43;;;12.60;99.90;;;;;;5019296;28;20336;-59
2022/06/15 02:17:01;;;;;;;15.35;10.13;;;12.60;99.90;;;;;;5017555;28;20042;-59
2022/06/15 02:19:34;;;;;;;16.92;10.20;;;12.60;99.90;;;;;;5019002;28;20425;-59
2022/06/15 02:22:22;;;;;;;15.75;10.48;;;12.60;99.90;;;;;;4979600;28;20126;-59
2022/06/15 02:24:53;;;;;;;15.50;9.82;;;12.60;99.90;;;;;;4981214;28;20086;-59
2022/06/15 02:27:21;;;;;;;14.60;10.20;;;12.60;99.90;;;;;;4983566;28;20123;-58
2022/06/15 02:29:50;;;;;;;15.32;11.05;;;12.60;99.90;;;;;;4981969;28;20057;-58
2022/06/15 02:32:18;;;;;;;16.70;10.23;;;12.60;99.90;;;;;;4983311;28;20046;-59
2022/06/15 02:34:43;;;;;;;14.40;10.20;;;12.60;99.90;;;;;;4982932;28;20038;-59
2022/06/15 02:37:10;;;;;;;14.45;9.38;;;12.60;99.90;;;;;;4982527;28;20078;-59
2022/06/15 02:39:37;;;;;;;14.68;9.30;;;12.60;99.90;;;;;;4983279;28;20506;-60
2022/06/15 02:42:40;;;;;;;14.52;9.90;;;12.60;99.90;;;;;;4981546;28;20047;-59
2022/06/15 02:45:11;;;;;;;14.88;9.40;;;12.80;99.90;;;;;;4982609;28;20039;-59
2022/06/15 02:47:41;;;;;;;14.02;9.32;;;12.80;99.90;;;;;;4979354;28;20082;-59
2022/06/15 02:50:09;;;;;;;14.55;9.90;;;12.90;99.90;;;;;;4981763;28;20051;-59
2022/06/15 02:52:41;;;;;;;14.85;9.27;;;12.90;99.90;;;;;;4983302;28;20145;-59
2022/06/15 02:55:09;;;;;;;12.95;8.95;;;12.80;99.90;;;;;;4981630;28;20042;-59
2022/06/15 02:57:49;;;;;;;13.35;9.80;;;12.80;99.90;;;;;;4983127;28;20057;-59
2022/06/15 03:00:16;;;;;;;14.50;9.00;;;12.80;99.90;;;;;;4981941;28;20035;-57
2022/06/15 03:02:42;;;;;;;14.85;9.80;;;12.90;99.90;;;;;;4982140;28;20102;-59
2022/06/15 03:05:09;;;;;;;12.05;8.52;;;12.80;99.90;;;;;;4982797;28;20054;-59
2022/06/15 03:07:34;;;;;;;14.30;9.55;;;12.90;99.90;;;;;;4980907;28;20058;-58
2022/06/15 03:10:00;;;;;;;14.70;9.85;;;12.90;99.90;;;;;;4983102;28;20141;-59
2022/06/15 03:12:26;;;;;;;13.13;8.75;;;13.00;99.90;;;;;;4981013;28;20129;-59
2022/06/15 03:14:51;;;;;;;15.00;8.90;;;13.00;99.90;;;;;;4982475;28;20050;-59
2022/06/15 03:17:17;;;;;;;15.02;9.07;;;13.10;99.90;;;;;;4981668;28;20045;-59
2022/06/15 03:19:43;;;;;;;11.00;8.20;;;13.00;99.90;;;;;;4979196;28;20065;-59
2022/06/15 03:22:09;;;;;;;13.98;8.75;;;13.00;99.90;;;;;;5009352;28;20042;-58
2022/06/15 03:24:34;;;;;;;12.43;8.65;;;13.00;99.90;;;;;;5019990;28;20057;-59
2022/06/15 03:27:00;;;;;;;14.68;8.90;;;13.00;99.90;;;;;;5021815;28;20045;-58
2022/06/15 03:29:26;;;;;;;13.15;8.65;;;13.10;99.90;;;;;;5019599;28;20437;-58
2022/06/15 03:31:51;;;;;;;12.70;8.02;;;13.10;99.90;;;;;;5021490;28;20061;-59
2022/06/15 03:34:17;;;;;;;13.15;9.20;;;13.10;99.90;;;;;;5019798;28;20188;-58
2022/06/15 03:36:43;;;;;;;13.45;9.13;;;13.20;99.90;;;;;;5020524;28;20101;-59
2022/06/15 03:39:08;;;;;;;14.20;8.63;;;13.20;99.90;;;;;;5020979;28;20069;-58
2022/06/15 03:41:34;;;;;;;11.48;8.48;;;13.00;99.90;;;;;;5020042;28;20093;-59
2022/06/15 03:44:00;;;;;;;13.20;8.40;;;12.90;99.90;;;;;;5021017;28;20053;-60
2022/06/15 03:46:25;;;;;;;11.88;8.10;;;12.80;99.90;;;;;;5019515;28;20398;-60
2022/06/15 03:48:51;;;;;;;11.23;7.97;;;12.90;99.90;;;;;;5003436;28;20056;-60
2022/06/15 03:51:16;;;;;;;13.20;8.05;;;12.80;99.90;;;;;;5019577;28;20484;-60
2022/06/15 03:53:42;;;;;;;10.95;7.55;;;12.80;99.90;;;;;;5020881;28;20046;-60
2022/06/15 03:56:08;;;;;;;13.25;9.23;;;12.80;99.90;;;;;;5020440;28;20046;-59
2022/06/15 03:58:34;;;;;;;13.85;9.15;;;12.90;99.90;;;;;;5019919;28;20053;-60
2022/06/15 04:00:59;;;;;;;14.40;8.35;;;12.90;99.90;;;;;;5020994;28;20041;-59
2022/06/15 04:03:25;;;;;;;13.32;8.80;;;12.80;99.90;;;;;;5019074;28;20069;-60
2022/06/15 04:05:54;;;;;;;14.55;8.65;;;12.80;99.90;;;;;;5021255;28;20042;-60
2022/06/15 04:08:35;;;;;;;15.23;9.20;;;12.90;99.90;;;;;;5018891;28;20101;-60
2022/06/15 04:11:07;;;;;;;12.38;8.27;;;12.80;99.90;;;;;;5020211;28;20042;-60
2022/06/15 04:13:33;;;;;;;15.70;9.50;;;12.90;99.90;;;;;;5020353;28;20103;-57
2022/06/15 04:15:59;;;;;;;12.68;8.75;;;12.90;99.90;;;;;;5018927;28;20498;-60
2022/06/15 04:18:24;;;;;;;12.50;8.55;;;13.00;99.90;;;;;;5020831;28;20060;-60
2022/06/15 04:20:50;;;;;;;14.45;9.15;;;13.10;99.90;;;;;;5018667;28;20580;-60
2022/06/15 04:23:18;;;;;;;11.57;7.63;;;13.10;99.90;;;;;;5020476;28;20076;-59
2022/06/15 04:25:51;;;;;;;12.93;8.48;;;13.20;99.90;;;;;;5019374;28;20052;-60
2022/06/15 04:28:19;;;;;;;13.38;7.88;;;13.10;99.90;;;;;;5019603;28;20057;-59
2022/06/15 04:30:46;;;;;;;12.77;8.23;;;13.10;99.90;;;;;;5020353;28;20049;-60
2022/06/15 04:33:12;;;;;;;11.23;7.35;;;13.00;99.90;;;;;;5018614;28;20061;-59
2022/06/15 04:35:38;;;;;;;10.75;7.75;;;13.10;99.90;;;;;;5020651;28;20102;-60
2022/06/15 04:38:04;;;;;;;12.13;8.43;;;13.00;99.90;;;;;;5018507;28;20045;-61
2022/06/15 04:40:32;;;;;;;14.13;8.88;;;13.10;99.90;;;;;;5020280;28;20050;-60
2022/06/15 04:42:58;;;;;;;14.45;8.38;;;13.20;99.90;;;;;;5001462;28;20042;-59
2022/06/15 04:45:23;;;;;;;15.15;8.27;;;13.30;99.90;;;;;;5019302;28;20463;-59
2022/06/15 04:47:49;;;;;;;12.98;7.10;;;13.40;99.90;;;;;;5018721;28;20065;-59
2022/06/15 04:50:16;;;;;;;11.00;7.78;;;13.50;99.90;;;;;;5018538;28;20049;-59
2022/06/15 04:52:45;;;;;;;12.32;8.38;;;13.50;99.90;;;;;;5020433;28;20128;-60
2022/06/15 04:55:16;;;;;;;11.80;8.80;;;13.60;99.90;;;;;;5000411;28;20077;-59
2022/06/15 04:57:42;;;;;;;13.73;7.72;;;13.60;99.90;;;;;;5020003;28;20058;-59
2022/06/15 05:00:13;;;;;;;13.10;8.52;;;13.60;99.90;;;;;;5018894;28;20038;-59
2022/06/15 05:02:39;;;;;;;11.70;7.93;;;13.60;99.90;;;;;;5019026;28;20049;-59
2022/06/15 05:05:05;;;;;;;14.57;8.50;;;13.60;99.90;;;;;;5019793;28;20129;-59
2022/06/15 05:07:31;;;;;;;17.17;8.35;;;13.60;99.90;;;;;;5018268;28;20053;-59
2022/06/15 05:09:57;;;;;;;15.80;7.82;;;13.50;99.90;;;;;;5002319;28;20379;-61
2022/06/15 05:12:23;;;;;;;14.88;8.50;;;13.70;99.90;;;;;;5018100;28;20037;-59
2022/06/15 05:14:49;;;;;;;12.77;8.60;;;13.80;99.90;;;;;;5019493;28;20052;-60
2022/06/15 05:17:16;;;;;;;13.43;8.07;;;14.00;99.90;;;;;;5018729;28;20069;-59
2022/06/15 05:19:41;;;;;;;12.88;7.90;;;14.10;99.90;;;;;;5018834;28;20647;-60
2022/06/15 05:22:07;;;;;;;11.82;7.55;;;14.30;99.90;;;;;;5019219;28;20133;-59
2022/06/15 05:24:33;;;;;;;14.07;7.50;;;14.40;99.90;;;;;;5000441;28;20064;-59
2022/06/15 05:26:59;;;;;;;10.30;6.65;;;14.60;99.90;;;;;;5019901;28;20046;-61
2022/06/15 05:29:25;;;;;;;12.18;6.60;;;14.60;99.90;;;;;;5017917;28;20065;-59
2022/06/15 05:31:52;;;;;;;12.00;6.88;;;14.80;99.90;;;;;;5019671;28;20046;-60
2022/06/15 05:34:18;;;;;;;11.52;6.97;;;14.90;99.90;;;;;;5018484;28;20038;-58
2022/06/15 05:36:44;;;;;;;13.80;7.40;;;15.00;99.90;;;;;;5018963;28;20049;-59
2022/06/15 05:39:10;;;;;;;13.43;6.82;;;15.20;99.90;;;;;;5019139;28;20046;-59
2022/06/15 05:41:36;;;;;;;9.23;5.65;;;15.20;99.90;;;;;;5017987;28;20050;-59
2022/06/15 05:44:03;;;;;;;11.88;6.97;;;15.30;99.90;;;;;;5019526;28;20046;-59
2022/06/15 05:46:34;;;;;;;15.63;6.80;;;15.40;99.90;;;;;;5017857;28;20093;-59
2022/06/15 05:49:02;;;;;;;12.82;7.15;;;15.60;99.90;;;;;;5019151;28;20448;-60
2022/06/15 05:51:28;;;;;;;14.27;7.40;;;15.60;99.90;;;;;;5018378;28;20053;-59
2022/06/15 05:53:54;;;;;;;10.98;5.63;;;15.60;99.90;;;;;;5018935;28;20426;-60
2022/06/15 05:56:22;;;;;;;10.50;6.07;;;15.70;99.90;;;;;;5019275;28;20053;-59
2022/06/15 05:58:49;;;;;;;10.32;6.00;;;15.70;99.90;;;;;;5019941;28;20414;-60
2022/06/15 06:01:23;;;;;;;10.60;6.63;;;15.60;99.90;;;;;;5023612;28;20049;-60
2022/06/15 06:03:49;;;;;;;12.45;7.13;;;15.60;99.90;;;;;;5021218;28;20080;-58
2022/06/15 06:06:15;;;;;;;10.10;6.45;;;15.50;99.90;;;;;;5023036;28;20034;-59
2022/06/15 06:08:40;;;;;;;11.57;6.88;;;15.60;99.90;;;;;;5021961;28;20129;-59
2022/06/15 06:11:06;;;;;;;11.88;6.28;;;15.50;99.90;;;;;;5021990;28;20102;-60
2022/06/15 06:13:32;;;;;;;15.50;6.85;;;15.70;99.90;;;;;;5022574;28;20105;-58
2022/06/15 06:15:58;;;;;;;12.52;6.75;;;15.70;99.90;;;;;;5021288;28;20073;-59
2022/06/15 06:18:24;;;;;;;14.60;7.18;;;15.70;99.90;;;;;;5022987;28;20110;-58
2022/06/15 06:20:50;;;;;;;14.52;6.30;;;15.70;99.90;;;;;;5020768;28;20050;-59
2022/06/15 06:23:16;;;;;;;10.18;5.93;;;15.90;99.90;;;;;;5022738;28;20111;-59
2022/06/15 06:25:43;;;;;;;10.23;6.40;;;15.80;99.90;;;;;;5021347;28;20588;-59
2022/06/15 06:28:25;;;;;;;12.63;6.28;;;15.90;99.90;;;;;;5022111;28;20037;-60
2022/06/15 06:30:50;;;;;;;11.40;6.15;;;15.90;99.90;;;;;;5022237;28;20113;-59
2022/06/15 06:33:17;;;;;;;11.05;6.07;;;15.90;99.90;;;;;;5003258;28;20478;-60
2022/06/15 06:35:43;;;;;;;11.85;6.43;;;15.90;99.90;;;;;;5022836;28;20673;-60
2022/06/15 06:38:10;;;;;;;10.27;5.70;;;16.00;99.90;;;;;;5003171;28;20050;-60
2022/06/15 06:40:36;;;;;;;11.65;6.85;;;16.00;99.90;;;;;;5022132;28;20058;-59
2022/06/15 06:43:02;;;;;;;11.02;6.13;;;16.10;99.90;;;;;;5004048;28;20049;-59
2022/06/15 06:45:28;;;;;;;11.25;6.00;;;16.10;99.90;;;;;;5021164;28;20815;-59
2022/06/15 06:47:56;;;;;;;11.60;5.50;;;16.10;99.90;;;;;;5022197;28;20045;-59
2022/06/15 06:50:22;;;;;;;11.15;5.95;;;16.10;99.90;;;;;;5020621;28;20121;-59
2022/06/15 06:52:49;;;;;;;10.63;5.85;;;16.30;99.90;;;;;;5022562;28;20053;-59
2022/06/15 06:55:15;;;;;;;10.57;5.80;;;16.20;99.90;;;;;;5020341;28;20046;-59
2022/06/15 06:57:41;;;;;;;12.70;5.45;;;16.30;99.90;;;;;;5022056;28;20046;-59
2022/06/15 07:00:08;;;;;;;10.40;5.07;;;16.60;99.90;;;;;;5021049;28;20372;-59
2022/06/15 07:02:34;;;;;;;11.55;5.40;;;16.80;99.90;;;;;;5021314;28;20030;-58
2022/06/15 07:04:59;;;;;;;9.60;4.68;;;16.90;99.90;;;;;;5022030;28;20065;-58
2022/06/15 07:07:25;;;;;;;9.43;4.80;;;16.70;99.90;;;;;;5020328;28;20053;-59
2022/06/15 07:09:51;;;;;;;8.82;4.03;;;16.90;99.90;;;;;;5021006;28;20120;-59
2022/06/15 07:12:16;;;;;;;11.30;4.80;;;17.00;99.90;;;;;;5020166;28;20082;-59
2022/06/15 07:14:42;;;;;;;9.85;4.18;;;17.00;99.90;;;;;;5021656;28;20050;-59
2022/06/15 07:17:08;;;;;;;8.63;3.75;;;17.00;99.90;;;;;;5002606;28;20034;-59
2022/06/15 07:19:33;;;;;;;10.27;3.80;;;17.10;99.90;;;;;;5020923;28;20042;-59
2022/06/15 07:21:59;;;;;;;10.07;4.03;;;17.30;99.90;;;;;;5020923;28;20084;-60
2022/06/15 07:24:25;;;;;;;8.43;3.70;;;17.50;99.90;;;;;;5020429;28;20046;-59
2022/06/15 07:26:50;;;;;;;9.90;3.97;;;17.70;99.90;;;;;;5021706;28;20069;-59
2022/06/15 07:29:20;;;;;;;10.90;4.53;;;18.00;99.90;;;;;;5019594;28;20072;-60
2022/06/15 07:31:49;;;;;;;9.20;4.03;;;18.00;99.90;;;;;;5021369;28;20057;-59
2022/06/15 07:34:14;;;;;;;11.10;4.65;;;18.00;99.90;;;;;;5020490;28;20042;-59
2022/06/15 07:36:46;;;;;;;10.40;3.70;;;17.90;99.90;;;;;;5020635;28;20409;-60
2022/06/15 07:39:16;;;;;;;;;;;18.00;99.90;;;;;;5021767;28;20076;-59
2022/06/15 07:41:42;;;;;;;9.80;3.60;;;18.30;99.90;;;;;;5019290;28;19921;-59
2022/06/15 07:44:08;;;;;;;9.82;2.83;;;18.50;99.90;;;;;;5021501;28;20398;-60
2022/06/15 07:46:34;;;;;;;7.90;2.90;;;18.70;99.90;;;;;;5019507;28;20037;-60
2022/06/15 07:51:58;;;;;;;9.73;3.25;;;18.50;99.90;;;;;;5020470;28;20099;-59
2022/06/15 07:54:24;;;;;;;7.55;3.00;;;18.50;99.90;;;;;;5019778;28;20050;-60
2022/06/15 07:56:51;;;;;;;6.70;3.13;;;18.60;99.90;;;;;;5021194;28;20041;-60
2022/06/15 07:59:17;;;;;;;8.02;3.42;;;18.70;99.90;;;;;;5019278;28;20084;-60
2022/06/15 08:01:43;;;;;;;9.50;4.18;;;18.50;99.90;;;;;;5020837;28;20073;-60
2022/06/15 08:04:10;;;;;;;10.45;3.75;;;18.60;99.90;;;;;;5019647;28;20098;-60
2022/06/15 08:06:38;;;;;;;7.45;3.63;;;18.50;99.90;;;;;;5020093;28;20050;-60
2022/06/15 08:09:05;;;;;;;9.68;3.78;;;18.60;99.90;;;;;;5020113;28;20659;-60
2022/06/15 08:11:31;;;;;;;11.02;4.13;;;18.70;99.90;;;;;;5019273;28;20073;-60
2022/06/15 08:13:57;;;;;;;10.60;3.50;;;18.60;99.90;;;;;;5020520;28;20056;-60
2022/06/15 08:16:23;;;;;;;10.15;3.30;;;18.60;99.90;;;;;;5018764;28;20064;-60
2022/06/15 08:18:57;;;;;;;7.78;2.75;;;18.60;99.90;;;;;;5020787;28;20054;-60
2022/06/15 08:21:25;;;;;;;10.23;3.58;;;18.50;99.90;;;;;;5018995;28;20061;-59
2022/06/15 08:23:54;;;;;;;10.40;3.50;;;18.60;99.90;;;;;;5002282;28;20053;-60
2022/06/15 08:26:25;;;;;;;6.05;2.80;;;18.60;99.90;;;;;;5020423;28;20110;-60
2022/06/15 08:28:54;;;;;;;7.90;3.45;;;18.60;99.90;;;;;;5018617;28;20061;-60
2022/06/15 08:31:20;;;;;;;7.85;3.08;;;18.50;99.90;;;;;;5020564;28;20105;-60
2022/06/15 08:33:46;;;;;;;9.75;3.75;;;18.50;99.90;;;;;;5018586;28;20046;-60
2022/06/15 08:36:12;;;;;;;10.65;4.05;;;18.50;99.90;;;;;;5020498;28;20053;-61
2022/06/15 08:38:39;;;;;;;9.07;3.05;;;18.30;99.90;;;;;;5019380;28;20077;-59
2022/06/15 08:41:45;;;;;;;12.88;5.65;;;18.30;99.90;;;;;;5019448;28;20054;-59
2022/06/15 08:44:34;;;;;;;7.88;3.97;;;18.50;99.90;;;;;;5020263;28;20663;-60
2022/06/15 08:47:14;;;;;;;7.80;3.80;;;18.50;99.90;;;;;;5018957;28;20097;-59
2022/06/15 08:49:59;;;;;;;9.73;5.03;;;18.40;99.90;;;;;;5001490;28;20053;-59
2022/06/15 08:52:50;;;;;;;10.10;4.80;;;18.30;99.90;;;;;;5020124;28;20054;-60
2022/06/15 08:55:32;;;;;;;8.40;4.10;;;18.40;99.90;;;;;;5018280;28;20052;-59
2022/06/15 08:58:08;;;;;;;9.75;4.50;;;18.40;99.90;;;;;;5019491;28;20042;-57
2022/06/15 09:00:37;;;;;;;10.68;4.13;;;18.40;99.90;;;;;;5002109;28;20045;-60
2022/06/15 09:03:23;;;;;;;8.43;3.85;;;18.30;99.90;;;;;;5018280;28;20088;-60
2022/06/15 09:05:54;;;;;;;9.73;4.22;;;18.10;99.90;;;;;;5020079;28;20402;-60
2022/06/15 09:08:45;;;;;;;10.45;3.95;;;18.00;99.90;;;;;;5018380;28;20565;-58
2022/06/15 09:11:33;;;;;;;9.85;4.10;;;18.10;99.90;;;;;;5018604;28;20050;-60
2022/06/15 09:14:26;;;;;;;10.27;4.03;;;18.20;99.90;;;;;;5019627;28;20050;-59
2022/06/15 09:17:12;;;;;;;8.60;3.58;;;18.10;99.90;;;;;;5018369;28;20050;-59
2022/06/15 09:19:54;;;;;;;7.70;3.53;;;18.10;99.90;;;;;;5018776;28;20061;-59
2022/06/15 09:22:33;;;;;;;9.48;4.00;;;18.20;99.90;;;;;;5019853;28;20521;-60
2022/06/15 09:25:11;;;;;;;10.32;4.03;;;18.10;99.90;;;;;;5017857;28;20094;-59
2022/06/15 09:28:34;;;;;;;9.77;3.80;;;18.20;99.90;;;;;;5019249;28;20041;-59
2022/06/15 09:31:05;;;;;;;9.85;3.65;;;18.20;99.90;;;;;;4978207;28;20050;-59
2022/06/15 09:33:42;;;;;;;14.02;5.00;;;18.20;99.90;;;;;;4977919;28;20086;-59
2022/06/15 09:36:16;;;;;;;9.75;3.97;;;18.40;99.90;;;;;;5011168;28;20080;-60
2022/06/15 09:38:42;;;;;;;9.20;3.90;;;18.80;99.90;;;;;;5022682;28;20077;-59
2022/06/15 09:41:29;;;;;;;9.23;3.67;;;19.20;99.90;;;;;;5022852;28;20129;-59
2022/06/15 09:44:00;;;;;;;8.93;3.92;;;19.20;99.90;;;;;;5023593;28;20050;-59
2022/06/15 09:46:38;;;;;;;9.95;4.03;;;19.40;99.90;;;;;;5021696;28;20132;-59
2022/06/15 09:49:26;;;;;;;8.25;3.90;;;19.60;99.90;;;;;;5022931;28;20046;-60
2022/06/15 09:52:07;;;;;;;9.75;3.90;;;19.60;99.90;;;;;;5022997;28;20041;-60
2022/06/15 09:55:00;;;;;;;7.40;3.00;;;20.00;99.90;;;;;;5021587;28;20041;-59
2022/06/15 09:57:26;;;;;;;11.05;3.65;;;20.00;99.90;;;;;;5023402;28;20472;-59
2022/06/15 09:59:51;;;;;;;6.60;3.40;;;19.90;99.90;;;;;;5021991;28;20095;-60
2022/06/15 10:02:29;;;;;;;8.48;3.40;;;19.80;99.90;;;;;;5022608;28;20053;-61
2022/06/15 10:04:57;;;;;;;8.35;3.50;;;20.00;99.90;;;;;;5022916;28;20050;-60
2022/06/15 10:07:32;;;;;;;9.75;3.25;;;20.10;99.90;;;;;;5021389;28;20102;-59
2022/06/15 10:10:16;;;;;;;7.07;3.35;;;20.10;99.90;;;;;;5023230;28;20038;-61
2022/06/15 10:12:58;;;;;;;6.53;3.13;;;20.10;99.90;;;;;;5021843;28;20049;-59
2022/06/15 10:15:29;;;;;;;;;;;20.10;99.90;;;;;;5022488;28;20042;-59
2022/06/15 10:18:14;;;;;;;9.98;2.83;;;20.00;99.90;;;;;;5023003;28;19933;-59
2022/06/15 10:20:41;;;;;;;8.45;3.35;;;20.10;99.90;;;;;;5020961;28;20054;-59
2022/06/15 10:23:20;;;;;;;8.82;3.72;;;20.10;99.90;;;;;;5022594;28;20053;-60
2022/06/15 10:25:55;;;;;;;9.30;4.35;;;19.90;99.90;;;;;;5021919;28;20042;-61
2022/06/15 10:28:27;;;;;;;11.55;4.18;;;19.90;99.90;;;;;;5021384;28;20057;-59
2022/06/15 10:30:59;;;;;;;9.38;4.35;;;19.90;99.90;;;;;;5022951;28;20214;-60
2022/06/15 10:33:44;;;;;;;8.82;3.97;;;20.10;99.90;;;;;;5020734;28;20069;-60
2022/06/15 10:36:35;;;;;;;7.95;3.75;;;20.10;99.90;;;;;;5022391;28;20053;-60
2022/06/15 10:39:13;;;;;;;9.32;4.60;;;20.00;99.90;;;;;;5010646;28;20587;-60
2022/06/15 10:41:47;;;;;;;11.20;4.15;;;20.10;99.90;;;;;;5020640;28;20046;-60
2022/06/15 10:44:35;;;;;;;9.48;3.95;;;20.10;99.90;;;;;;5021465;28;20146;-60
2022/06/15 10:47:19;;;;;;;9.30;3.65;;;20.10;99.90;;;;;;5021094;28;20037;-60
2022/06/15 10:49:53;;;;;;;8.85;3.92;;;20.00;99.90;;;;;;5004068;28;20053;-60
2022/06/15 10:52:22;;;;;;;7.65;3.35;;;19.90;99.90;;;;;;5022519;28;20824;-60
2022/06/15 11:03:19;;;;;;;9.27;3.75;;;19.50;99.90;;;;;;5020616;28;20155;-60
2022/06/15 11:05:49;;;;;;;11.57;3.92;;;19.60;99.90;;;;;;5022041;28;20556;-60
2022/06/15 11:08:20;;;;;;;7.65;3.70;;;19.70;99.90;;;;;;5020561;28;20041;-56
2022/06/15 11:10:49;;;;;;;8.15;3.63;;;20.00;99.90;;;;;;5021360;28;20048;-59
2022/06/15 11:13:33;;;;;;;8.40;3.95;;;20.20;99.90;;;;;;5021510;28;20100;-60
2022/06/15 11:19:06;;;;;;;6.70;3.80;;;20.60;99.90;;;;;;5021661;28;20046;-60
2022/06/15 11:21:37;;;;;;;10.73;4.28;;;20.30;99.90;;;;;;5020514;28;20494;-60
2022/06/15 11:24:11;;;;;;;9.20;4.00;;;20.30;99.90;;;;;;5020315;28;20048;-60
2022/06/15 11:26:54;;;;;;;8.85;4.30;;;20.30;99.90;;;;;;5021462;28;20100;-60
2022/06/15 11:29:37;;;;;;;7.35;3.72;;;20.40;99.90;;;;;;5019609;28;20057;-60
2022/06/15 11:32:35;;;;;;;8.35;3.42;;;20.60;99.90;;;;;;5021091;28;20042;-60
2022/06/15 11:35:35;;;;;;;10.73;4.10;;;20.70;99.90;;;;;;5003245;28;20050;-60
2022/06/15 11:38:36;;;;;;;8.32;3.53;;;21.00;99.90;;;;;;5017240;28;20154;-58
2022/06/15 11:41:14;;;;;;;7.10;3.45;;;20.90;99.90;;;;;;4978455;28;20046;-59
2022/06/15 11:43:47;;;;;;;8.98;4.43;;;21.20;99.90;;;;;;5015778;28;20116;-60
2022/06/15 11:46:37;;;;;;;8.52;3.53;;;21.10;99.90;;;;;;5019420;28;20046;-59
2022/06/15 11:49:27;;;;;;;10.73;4.25;;;21.00;99.90;;;;;;5021074;28;20092;-59
2022/06/15 11:51:53;;;;;;;8.88;4.18;;;20.80;99.90;;;;;;5020946;28;20055;-60
2022/06/15 11:54:43;;;;;;;9.52;3.63;;;20.70;99.90;;;;;;5019421;28;20113;-59
2022/06/15 11:57:18;;;;;;;6.82;3.55;;;20.80;99.90;;;;;;5020615;28;20054;-58
2022/06/15 11:59:57;;;;;;;7.05;2.92;;;20.80;99.90;;;;;;5019453;28;20046;-59
2022/06/15 12:02:47;;;;;;;9.05;3.20;;;20.90;99.90;;;;;;5020201;28;20046;-60
2022/06/15 12:05:38;;;;;;;9.10;3.75;;;20.90;99.90;;;;;;5021160;28;20038;-59
2022/06/15 12:08:37;;;;;;;7.70;3.20;;;20.90;99.90;;;;;;5019351;28;20054;-59
2022/06/15 12:12:37;;;;;;;8.73;3.08;;;20.90;99.90;;;;;;5019748;28;20049;-60
2022/06/15 12:14:02;;;;;;;8.57;3.42;;;21.00;99.90;;;;;;5020578;28;20601;-59
2022/06/15 12:16:38;;;;;;;9.23;3.65;;;20.60;99.90;;;;;;5018846;28;20046;-59
2022/06/15 12:19:25;;;;;;;6.60;3.47;;;20.70;99.90;;;;;;5020576;28;20046;-59
2022/06/15 12:21:54;;;;;;;8.15;3.42;;;20.90;99.90;;;;;;5019977;28;20086;-59
2022/06/15 12:24:28;;;;;;;6.85;3.17;;;21.00;99.90;;;;;;5019101;28;20046;-60
2022/06/15 12:27:10;;;;;;;8.50;3.20;;;21.20;99.90;;;;;;5020619;28;20514;-59
2022/06/15 12:29:58;;;;;;;9.27;3.47;;;21.20;99.90;;;;;;5018912;28;20050;-59
2022/06/15 12:32:35;;;;;;;8.15;3.67;;;21.10;99.90;;;;;;5019694;28;20069;-60
2022/06/15 12:35:12;;;;;;;7.55;3.60;;;21.00;99.90;;;;;;5020451;28;20045;-59
2022/06/15 12:37:48;;;;;;;8.20;3.83;;;21.10;99.90;;;;;;5018576;28;20068;-59
2022/06/15 12:40:31;;;;;;;6.28;3.00;;;21.20;99.90;;;;;;5020256;28;20561;-59
2022/06/15 12:43:13;;;;;;;7.80;2.72;;;21.40;99.90;;;;;;5019451;28;20450;-59
2022/06/15 12:45:49;;;;;;;7.07;2.58;;;21.50;99.90;;;;;;5018390;28;20080;-60
2022/06/15 12:48:31;;;;;;;6.40;2.83;;;21.60;99.90;;;;;;5020371;28;20050;-59
2022/06/15 12:51:10;;;;;;;8.93;2.83;;;21.50;99.90;;;;;;5018421;28;20049;-59
2022/06/15 12:53:51;;;;;;;7.88;3.13;;;21.30;99.90;;;;;;5019418;28;20450;-60
2022/06/15 12:56:29;;;;;;;7.03;2.67;;;21.10;99.90;;;;;;5019796;28;20049;-59
2022/06/15 12:59:27;;;;;;;8.95;2.95;;;21.00;99.90;;;;;;5018423;28;20053;-58
2022/06/15 13:02:28;;;;;;;7.72;2.97;;;21.10;99.90;;;;;;5019771;28;20050;-60
2022/06/15 13:05:25;;;;;;;7.25;2.90;;;21.30;99.90;;;;;;4988839;28;20069;-60
2022/06/15 13:08:21;;;;;;;8.05;2.58;;;21.30;99.90;;;;;;5017397;28;20049;-61
2022/06/15 13:10:53;;;;;;;8.02;2.65;;;21.40;99.90;;;;;;5019196;28;20049;-61
2022/06/15 13:13:49;;;;;;;7.75;2.88;;;21.60;99.90;;;;;;5019527;28;20050;-62
2022/06/15 13:16:40;;;;;;;6.32;2.50;;;21.60;99.90;;;;;;5017937;28;20042;-60
2022/06/15 13:19:38;;;;;;;5.70;2.63;;;21.50;99.90;;;;;;5019688;28;20050;-60
2022/06/15 13:22:21;;;;;;;7.80;2.70;;;21.60;99.90;;;;;;4998953;28;20057;-60
2022/06/15 13:24:49;;;;;;;6.70;2.40;;;21.60;99.90;;;;;;5018081;28;20038;-61